This is the latest recevied weather packets stored in our database for station/object N7SXG. If no packets are shown the sender has not sent any weather packets the latest 10 day(s).
| Time | Temp. | Humidity | Pressure | Rain* | Wind** | Luminosity | Snow |
|---|---|---|---|---|---|---|---|
| 1777991490 | 17.78° C | 79% | 1009.9 hPa | 0 mm | - | - | - |
| 1777984277 | 13.33° C | 91% | 1009.3 hPa | 0 mm | - | - | - |
| 1777982477 | 12.78° C | 91% | 1009.1 hPa | 0.25 mm | - | - | - |
| 1777978856 | 12.78° C | 90% | 1007.3 hPa | 0.25 mm | - | - | - |
| 1777975256 | 13.33° C | 86% | 1009.1 hPa | 3.05 mm | - | - | - |
| 1777974356 | 13.33° C | 85% | 1009.4 hPa | 2.54 mm | - | - | - |
| 1777973459 | 13.89° C | 84% | 1009.7 hPa | 2.03 mm | - | - | - |
| 1777958168 | 19.44° C | 60% | 1006.2 hPa | 0 mm | - | - | - |
| 1777954560 | 19.44° C | 63% | 1006.8 hPa | 0 mm | - | - | - |
| 1777953659 | 19.44° C | 61% | 1006.9 hPa | 0 mm | - | - | - |
| 1777952755 | 19.44° C | 61% | 1007 hPa | 0 mm | - | - | - |
| 1777947357 | 20° C | 58% | 1006.7 hPa | 0 mm | - | - | - |
| 1777946454 | 20° C | 57% | 1006.7 hPa | 0 mm | - | - | - |
| 1777945565 | 20° C | 57% | 1006.6 hPa | 0 mm | - | - | - |
| 1777944669 | 20° C | 56% | 1006.4 hPa | 0 mm | - | - | - |
| 1777941958 | 20.56° C | 56% | 1005.9 hPa | 0 mm | - | - | - |
| 1777939273 | 21.67° C | 54% | 1006.1 hPa | 0 mm | - | - | - |
| 1777929365 | 22.22° C | 54% | 1007.3 hPa | 0 mm | - | - | - |
| 1777927562 | 21.67° C | 55% | 1007.4 hPa | 0 mm | - | - | - |
| 1777925759 | 21.67° C | 55% | 1008.3 hPa | 0 mm | - | - | - |
| 1777923956 | 20.56° C | 58% | 1008.4 hPa | 0 mm | - | - | - |
| 1777922165 | 21.11° C | 58% | 1008.6 hPa | 0 mm | - | - | - |
| 1777919462 | 21.67° C | 56% | 1008.9 hPa | 0 mm | - | - | - |
| 1777914958 | 22.78° C | 52% | 1008.4 hPa | 0 mm | - | - | - |
| 1777907784 | 20° C | 57% | 1009.6 hPa | 0 mm | - | - | - |
* Rain latest hour (hover to see other rain measurements)
** Current wind speed in m/s (hover to see current wind gust speed)